Time;durP1;ratioP1;P1;durP2;ratioP2;P2;SDS_P1;SDS_P2;PMS_P1;PMS_P2;Temp;Humidity;BMP_temperature;BMP_pressure;BME280_temperature;BME280_humidity;BME280_pressure;Samples;Min_cycle;Max_cycle;Signal;HPM_P1;HPM_P2
2022/12/08 00:02:51;;;;;;;0.75;0.47;;;19.20;54.70;;;;;;6271805;28;20108;-68
2022/12/08 00:09:32;;;;;;;1.00;0.90;;;19.20;55.40;;;;;;6271689;28;20025;-68
2022/12/08 00:12:33;;;;;;;0.55;0.43;;;19.20;54.80;;;;;;6271113;28;20557;-68
2022/12/08 00:15:33;;;;;;;0.77;0.50;;;19.20;54.70;;;;;;6271426;28;20066;-68
2022/12/08 00:18:34;;;;;;;1.30;0.70;;;19.20;54.70;;;;;;6271294;28;20079;-68
2022/12/08 00:21:35;;;;;;;1.05;0.60;;;19.20;54.70;;;;;;6271324;28;20033;-68
2022/12/08 00:24:38;;;;;;;0.98;0.52;;;19.20;54.70;;;;;;6271027;28;20058;-68
2022/12/08 00:27:39;;;;;;;0.80;0.60;;;19.20;54.80;;;;;;6269991;28;20017;-69
2022/12/08 00:30:40;;;;;;;1.05;0.60;;;19.20;54.70;;;;;;6270931;28;20029;-68
2022/12/08 00:33:41;;;;;;;0.82;0.60;;;19.20;54.70;;;;;;6271310;28;20025;-69
2022/12/08 00:36:42;;;;;;;0.80;0.50;;;19.20;54.70;;;;;;6270826;28;20501;-68
2022/12/08 00:39:43;;;;;;;0.85;0.60;;;19.20;54.70;;;;;;6269883;28;20067;-69
2022/12/08 00:42:44;;;;;;;0.43;0.40;;;19.20;54.70;;;;;;6269667;28;20437;-68
2022/12/08 00:45:45;;;;;;;0.80;0.50;;;19.20;54.70;;;;;;6270840;28;20025;-69
2022/12/08 00:48:45;;;;;;;0.80;0.50;;;19.20;54.80;;;;;;6270465;28;20029;-68
2022/12/08 00:51:46;;;;;;;1.23;0.50;;;19.20;54.70;;;;;;6270546;28;20478;-68
2022/12/08 00:54:47;;;;;;;0.40;0.30;;;19.20;54.70;;;;;;6270305;28;20056;-68
2022/12/08 00:57:47;;;;;;;0.30;0.30;;;19.20;54.80;;;;;;6270504;28;20033;-68
2022/12/08 01:00:48;;;;;;;1.55;0.70;;;19.20;55.40;;;;;;6268956;28;20029;-68
2022/12/08 01:03:49;;;;;;;0.70;0.50;;;19.20;54.70;;;;;;6270412;28;20370;-69
2022/12/08 01:06:49;;;;;;;1.45;0.50;;;19.20;54.80;;;;;;6270090;28;20068;-69
2022/12/08 01:09:51;;;;;;;1.13;0.63;;;19.20;54.60;;;;;;6270236;28;20056;-68
2022/12/08 01:12:52;;;;;;;1.00;0.50;;;19.20;54.70;;;;;;6270145;28;20025;-68
2022/12/08 01:15:52;;;;;;;0.68;0.50;;;19.20;54.80;;;;;;6270306;28;20072;-68
2022/12/08 01:18:55;;;;;;;0.98;0.50;;;19.20;54.80;;;;;;6269815;28;20029;-68
2022/12/08 01:21:55;;;;;;;0.85;0.50;;;19.20;54.80;;;;;;6269901;28;20040;-69
2022/12/08 01:24:56;;;;;;;0.65;0.55;;;19.20;54.80;;;;;;6268400;28;20414;-70
2022/12/08 01:27:57;;;;;;;0.70;0.50;;;19.20;54.80;;;;;;6269891;28;20083;-68
2022/12/08 01:30:59;;;;;;;0.80;0.60;;;19.20;54.70;;;;;;6269479;28;20040;-68
2022/12/08 01:33:59;;;;;;;0.60;0.43;;;19.20;54.70;;;;;;6268009;28;20398;-69
2022/12/08 01:37:00;;;;;;;0.85;0.45;;;19.20;54.80;;;;;;6269360;28;20033;-68
2022/12/08 01:40:01;;;;;;;0.50;0.40;;;19.20;54.80;;;;;;6269853;28;20095;-68
2022/12/08 01:43:02;;;;;;;0.68;0.45;;;19.20;54.80;;;;;;6269545;28;20517;-68
2022/12/08 01:46:02;;;;;;;0.80;0.47;;;19.20;54.80;;;;;;6269475;28;20025;-68
2022/12/08 01:49:03;;;;;;;1.50;0.52;;;19.20;54.80;;;;;;6268300;28;20071;-68
2022/12/08 01:52:41;;;;;;;0.82;0.50;;;19.20;54.80;;;;;;6267895;28;20508;-68
2022/12/08 01:55:48;;;;;;;0.60;0.50;;;19.20;54.80;;;;;;6268653;28;20512;-68
2022/12/08 01:58:53;;;;;;;0.50;0.40;;;19.20;54.80;;;;;;6269356;28;20041;-68
2022/12/08 02:01:53;;;;;;;1.60;0.55;;;19.20;54.80;;;;;;6267730;28;20025;-68
2022/12/08 02:04:54;;;;;;;0.38;0.32;;;19.20;54.80;;;;;;6269463;28;20055;-68
2022/12/08 02:07:57;;;;;;;1.67;0.50;;;19.20;54.80;;;;;;6269101;28;20021;-68
2022/12/08 02:10:58;;;;;;;0.95;0.65;;;19.20;54.80;;;;;;6269040;28;20087;-68
2022/12/08 02:13:59;;;;;;;0.68;0.50;;;19.20;54.80;;;;;;6269215;28;20041;-68
2022/12/08 02:17:18;;;;;;;0.70;0.45;;;19.20;54.80;;;;;;6269200;28;20078;-69
2022/12/08 02:21:07;;;;;;;0.93;0.50;;;19.20;54.80;;;;;;6267437;28;20614;-68
2022/12/08 02:24:30;;;;;;;0.95;0.47;;;19.20;54.80;;;;;;6268711;28;20039;-68
2022/12/08 02:27:34;;;;;;;1.17;0.52;;;19.20;54.80;;;;;;6268633;28;20029;-68
2022/12/08 02:31:11;;;;;;;0.52;0.50;;;19.20;54.80;;;;;;6269051;28;20549;-69
2022/12/08 02:34:28;;;;;;;0.50;0.43;;;19.20;54.80;;;;;;6259653;28;20037;-68
2022/12/08 02:37:31;;;;;;;0.70;0.50;;;19.20;54.80;;;;;;6268961;28;20036;-68
2022/12/08 02:41:14;;;;;;;0.95;0.50;;;19.20;54.80;;;;;;6268807;28;20127;-69
2022/12/08 02:44:26;;;;;;;0.55;0.50;;;19.20;54.80;;;;;;6268568;28;20033;-68
2022/12/08 02:47:29;;;;;;;1.30;0.50;;;19.10;54.70;;;;;;6273426;28;20058;-68
2022/12/08 02:50:30;;;;;;;1.05;0.50;;;19.20;54.80;;;;;;6273373;28;20021;-68
2022/12/08 02:53:34;;;;;;;0.82;0.40;;;19.20;54.80;;;;;;6272190;28;20112;-68
2022/12/08 02:56:59;;;;;;;0.95;0.40;;;19.20;54.80;;;;;;6273298;28;20045;-69
2022/12/08 03:00:18;;;;;;;0.60;0.40;;;19.10;55.40;;;;;;6273184;28;20021;-68
2022/12/08 03:03:33;;;;;;;0.90;0.50;;;19.10;54.70;;;;;;6271752;28;20166;-68
2022/12/08 03:06:41;;;;;;;0.38;0.25;;;19.20;54.80;;;;;;6273265;28;20021;-68
2022/12/08 03:09:55;;;;;;;1.00;0.60;;;19.10;54.70;;;;;;6273121;28;20096;-68
2022/12/08 03:13:03;;;;;;;1.27;0.60;;;19.10;54.70;;;;;;6271430;28;20025;-68
2022/12/08 03:16:06;;;;;;;0.65;0.50;;;19.20;54.90;;;;;;6273043;28;20477;-69
2022/12/08 03:19:24;;;;;;;0.95;0.50;;;19.10;54.80;;;;;;6272585;28;20025;-68
2022/12/08 03:22:27;;;;;;;0.82;0.50;;;19.10;54.80;;;;;;6272634;28;20486;-69
2022/12/08 03:25:31;;;;;;;1.10;0.50;;;19.10;54.80;;;;;;6273021;28;20024;-68
2022/12/08 03:28:32;;;;;;;0.52;0.32;;;19.10;54.80;;;;;;6272637;28;20386;-68
2022/12/08 03:31:38;;;;;;;0.55;0.50;;;19.10;54.80;;;;;;6271136;28;20025;-68
2022/12/08 03:34:42;;;;;;;0.40;0.30;;;19.10;54.80;;;;;;6271143;28;20029;-68
2022/12/08 03:37:43;;;;;;;0.73;0.40;;;19.10;54.70;;;;;;6272522;28;20049;-68
2022/12/08 03:41:17;;;;;;;0.82;0.50;;;19.10;54.70;;;;;;6272306;28;20670;-69
2022/12/08 03:44:05;;;;;;;0.63;0.43;;;19.10;54.80;;;;;;6272042;28;20033;-68
2022/12/08 03:47:06;;;;;;;0.45;0.35;;;19.10;54.80;;;;;;6272319;28;20075;-69
2022/12/08 03:50:07;;;;;;;0.90;0.40;;;19.10;54.80;;;;;;6271766;28;20245;-68
2022/12/08 03:53:07;;;;;;;0.40;0.32;;;19.10;54.80;;;;;;6272104;28;20520;-68
2022/12/08 03:56:27;;;;;;;0.40;0.40;;;19.10;54.80;;;;;;6271557;28;20049;-68
2022/12/08 03:59:28;;;;;;;0.80;0.52;;;19.10;54.80;;;;;;6271812;28;20098;-68
2022/12/08 04:02:28;;;;;;;0.40;0.40;;;19.10;54.70;;;;;;6271698;28;20709;-69
2022/12/08 04:05:29;;;;;;;0.43;0.40;;;19.10;54.80;;;;;;6270307;28;20095;-68
2022/12/08 04:08:30;;;;;;;0.47;0.38;;;19.10;54.80;;;;;;6271556;28;20553;-69
2022/12/08 04:11:30;;;;;;;1.05;0.38;;;19.10;54.80;;;;;;6269679;28;20049;-68
2022/12/08 04:14:31;;;;;;;0.63;0.50;;;19.10;54.80;;;;;;6271596;28;20028;-68
2022/12/08 04:17:32;;;;;;;0.32;0.30;;;19.10;54.80;;;;;;6270149;28;20025;-68
2022/12/08 04:20:32;;;;;;;0.30;0.30;;;19.10;54.80;;;;;;6271127;28;20559;-68
2022/12/08 04:23:33;;;;;;;0.50;0.43;;;19.10;54.80;;;;;;6269781;28;20052;-68
2022/12/08 04:26:34;;;;;;;0.90;0.60;;;19.10;54.80;;;;;;6271376;28;20474;-68
2022/12/08 04:29:34;;;;;;;0.45;0.40;;;19.10;54.80;;;;;;6270014;28;20028;-68
2022/12/08 04:32:35;;;;;;;0.43;0.30;;;19.10;55.50;;;;;;6269794;28;20017;-69
2022/12/08 04:35:36;;;;;;;0.30;0.30;;;19.10;54.80;;;;;;6270910;28;20501;-68
2022/12/08 04:38:36;;;;;;;0.70;0.55;;;19.10;54.80;;;;;;6271086;28;20107;-68
2022/12/08 04:41:37;;;;;;;0.88;0.40;;;19.10;54.80;;;;;;6270482;28;20033;-68
2022/12/08 04:44:38;;;;;;;0.50;0.32;;;19.10;54.80;;;;;;6271052;28;20071;-68
2022/12/08 04:47:38;;;;;;;0.50;0.30;;;19.10;54.80;;;;;;6270837;28;20386;-68
2022/12/08 04:50:41;;;;;;;0.40;0.40;;;19.10;54.80;;;;;;6270669;28;20112;-68
2022/12/08 04:53:42;;;;;;;1.05;0.52;;;19.10;54.80;;;;;;6270567;28;20032;-68
2022/12/08 04:56:43;;;;;;;0.30;0.30;;;19.10;54.80;;;;;;6270460;28;20383;-68
2022/12/08 05:00:40;;;;;;;0.30;0.30;;;19.10;54.80;;;;;;6270319;28;20028;-68
2022/12/08 05:03:41;;;;;;;0.40;0.38;;;19.10;54.80;;;;;;6269156;28;20014;-68
2022/12/08 05:06:42;;;;;;;0.73;0.45;;;19.10;54.80;;;;;;6269787;28;20045;-68
2022/12/08 05:09:43;;;;;;;0.60;0.40;;;19.10;54.80;;;;;;6270085;28;20032;-68
2022/12/08 05:12:44;;;;;;;0.80;0.40;;;19.10;54.80;;;;;;6268966;28;20413;-68
2022/12/08 05:15:45;;;;;;;0.93;0.50;;;19.10;54.80;;;;;;6269962;28;20017;-68
2022/12/08 05:18:45;;;;;;;0.30;0.30;;;19.10;54.80;;;;;;6270028;28;20445;-68
2022/12/08 05:21:46;;;;;;;0.25;0.25;;;19.10;54.80;;;;;;6269818;28;20028;-68
2022/12/08 05:24:46;;;;;;;0.40;0.32;;;19.10;54.80;;;;;;6269372;28;20021;-68
2022/12/08 05:27:47;;;;;;;0.70;0.50;;;19.10;54.80;;;;;;6269496;28;20025;-68
2022/12/08 05:30:48;;;;;;;0.60;0.30;;;19.10;54.80;;;;;;6267885;28;20040;-68
2022/12/08 05:33:51;;;;;;;0.38;0.30;;;19.10;54.80;;;;;;6269793;28;20724;-68
2022/12/08 05:36:52;;;;;;;0.52;0.40;;;19.10;54.70;;;;;;6269610;28;20056;-68
2022/12/08 05:39:53;;;;;;;0.40;0.40;;;19.10;54.70;;;;;;6269764;28;20021;-69
2022/12/08 05:42:53;;;;;;;0.30;0.30;;;19.10;54.80;;;;;;6269274;28;20027;-68
2022/12/08 05:45:54;;;;;;;0.80;0.40;;;19.10;54.70;;;;;;6269392;28;20107;-68
2022/12/08 05:48:57;;;;;;;0.28;0.28;;;19.10;54.70;;;;;;6268264;28;20044;-68
2022/12/08 05:51:58;;;;;;;0.40;0.38;;;19.10;54.70;;;;;;6268061;28;20029;-68
2022/12/08 05:54:59;;;;;;;0.32;0.32;;;19.10;54.70;;;;;;6267641;28;20075;-68
2022/12/08 05:57:59;;;;;;;0.40;0.40;;;19.20;54.80;;;;;;6267961;28;20560;-68
2022/12/08 06:01:00;;;;;;;0.70;0.45;;;19.20;54.80;;;;;;6269056;28;20033;-69
2022/12/08 06:04:02;;;;;;;0.30;0.30;;;19.20;54.80;;;;;;6269192;28;20021;-68
2022/12/08 06:07:03;;;;;;;0.45;0.45;;;19.20;54.80;;;;;;6267594;28;20032;-68
2022/12/08 06:10:04;;;;;;;1.95;0.50;;;19.20;54.80;;;;;;6268966;28;20056;-68
2022/12/08 06:13:05;;;;;;;0.40;0.30;;;19.20;54.80;;;;;;6268946;28;20040;-68
2022/12/08 06:16:06;;;;;;;0.63;0.40;;;19.10;54.70;;;;;;6269019;28;20022;-68
2022/12/08 06:19:07;;;;;;;0.50;0.40;;;19.10;54.70;;;;;;6270710;28;20052;-68
2022/12/08 06:22:07;;;;;;;0.25;0.25;;;19.20;54.80;;;;;;6272603;28;20118;-68
2022/12/08 06:25:08;;;;;;;0.43;0.22;;;19.20;54.80;;;;;;6272450;28;20024;-68
2022/12/08 06:28:09;;;;;;;0.43;0.38;;;19.20;54.80;;;;;;6273804;28;20543;-68
2022/12/08 06:31:16;;;;;;;0.50;0.30;;;19.20;54.70;;;;;;6274215;28;20029;-68
2022/12/08 06:34:17;;;;;;;0.98;0.50;;;19.20;54.80;;;;;;6272521;28;20068;-68
2022/12/08 06:37:18;;;;;;;0.70;0.40;;;19.20;54.80;;;;;;6273710;28;20029;-68
2022/12/08 06:40:19;;;;;;;0.32;0.32;;;19.20;54.80;;;;;;6273424;28;20028;-68
2022/12/08 06:43:19;;;;;;;0.88;0.50;;;19.20;54.80;;;;;;6273734;28;20054;-68
2022/12/08 06:46:20;;;;;;;0.35;0.30;;;19.20;54.80;;;;;;6273400;28;20417;-68
2022/12/08 06:49:21;;;;;;;0.40;0.40;;;19.20;54.80;;;;;;6273557;28;20025;-68
2022/12/08 06:52:21;;;;;;;0.57;0.30;;;19.20;54.70;;;;;;6273388;28;20021;-68
2022/12/08 06:55:22;;;;;;;0.43;0.40;;;19.20;54.70;;;;;;6273212;28;20490;-68
2022/12/08 06:58:23;;;;;;;0.55;0.32;;;19.20;54.80;;;;;;6272926;28;20029;-68
2022/12/08 07:01:23;;;;;;;0.30;0.30;;;19.20;54.80;;;;;;6273741;28;20547;-70
2022/12/08 07:04:24;;;;;;;0.30;0.30;;;19.20;54.80;;;;;;6270536;28;20017;-70
2022/12/08 07:07:25;;;;;;;0.82;0.43;;;19.20;54.80;;;;;;6273626;28;20028;-70
2022/12/08 07:10:25;;;;;;;0.65;0.35;;;19.20;54.80;;;;;;6274491;28;20616;-70
2022/12/08 07:13:26;;;;;;;0.30;0.30;;;19.20;54.80;;;;;;6274745;28;20024;-69
2022/12/08 07:16:27;;;;;;;0.77;0.50;;;19.20;54.70;;;;;;6274195;28;20025;-70
2022/12/08 07:19:27;;;;;;;0.57;0.40;;;19.20;54.70;;;;;;6273377;28;20048;-71
2022/12/08 07:22:28;;;;;;;0.43;0.32;;;19.10;54.60;;;;;;6272964;28;20033;-70
2022/12/08 07:25:29;;;;;;;1.15;0.50;;;19.20;54.70;;;;;;6274495;28;20017;-70
2022/12/08 07:28:31;;;;;;;0.50;0.30;;;19.20;54.80;;;;;;6274353;28;20021;-70
2022/12/08 07:31:32;;;;;;;0.30;0.30;;;19.20;54.70;;;;;;6273222;28;20025;-70
2022/12/08 07:34:32;;;;;;;0.90;0.43;;;19.20;54.80;;;;;;6272994;28;20075;-70
2022/12/08 07:37:34;;;;;;;0.90;0.30;;;19.20;54.80;;;;;;6273447;28;20406;-69
2022/12/08 07:40:37;;;;;;;0.95;0.55;;;19.20;55.60;;;;;;6273637;28;20029;-69
2022/12/08 07:43:37;;;;;;;1.30;0.52;;;19.20;54.90;;;;;;6294314;28;20147;-69
2022/12/08 07:46:38;;;;;;;0.82;0.30;;;19.20;54.90;;;;;;6274679;28;20035;-69
2022/12/08 07:49:39;;;;;;;1.58;0.55;;;19.20;54.90;;;;;;6272642;28;20025;-69
2022/12/08 07:52:39;;;;;;;0.65;0.40;;;19.20;54.80;;;;;;6272418;28;20481;-69
2022/12/08 07:55:41;;;;;;;0.70;0.35;;;19.20;54.80;;;;;;6272532;28;20490;-69
2022/12/08 07:58:44;;;;;;;2.20;0.50;;;19.20;54.90;;;;;;6273650;28;20444;-69
2022/12/08 08:01:46;;;;;;;0.82;0.35;;;19.20;54.90;;;;;;6273480;28;20045;-69
2022/12/08 08:04:50;;;;;;;0.30;0.25;;;19.20;55.60;;;;;;6272136;28;20063;-69
2022/12/08 08:07:50;;;;;;;2.17;0.50;;;19.10;55.60;;;;;;6272251;28;20025;-69
2022/12/08 08:10:52;;;;;;;1.80;0.60;;;19.20;54.90;;;;;;6271965;28;20028;-68
2022/12/08 08:13:53;;;;;;;1.00;0.60;;;19.20;55.00;;;;;;6271590;28;20074;-68
2022/12/08 08:16:53;;;;;;;3.22;0.50;;;19.20;55.00;;;;;;6272760;28;20101;-69
2022/12/08 08:19:54;;;;;;;1.45;0.50;;;19.20;55.00;;;;;;6271717;28;20051;-69
2022/12/08 08:22:55;;;;;;;0.88;0.40;;;19.20;55.00;;;;;;6272876;28;20494;-69
2022/12/08 08:26:01;;;;;;;0.75;0.40;;;19.20;55.10;;;;;;6271483;28;20029;-69
2022/12/08 08:29:02;;;;;;;1.00;0.30;;;19.20;55.00;;;;;;6271712;28;20021;-69
2022/12/08 08:32:03;;;;;;;0.75;0.40;;;19.20;55.00;;;;;;6271655;28;20029;-69
2022/12/08 08:35:04;;;;;;;1.48;0.50;;;19.20;55.00;;;;;;6273615;28;20103;-69
2022/12/08 08:38:05;;;;;;;1.40;0.38;;;19.20;55.10;;;;;;6272773;28;20036;-69
2022/12/08 08:41:11;;;;;;;0.82;0.35;;;19.20;55.10;;;;;;6272877;28;20029;-69
2022/12/08 08:44:13;;;;;;;0.93;0.60;;;19.20;55.00;;;;;;6272787;28;20091;-69
2022/12/08 08:47:14;;;;;;;0.77;0.40;;;19.20;55.10;;;;;;6271698;28;20103;-68
2022/12/08 08:50:15;;;;;;;3.70;0.50;;;19.20;55.00;;;;;;6272654;28;20025;-69
2022/12/08 08:53:16;;;;;;;1.10;0.47;;;19.20;55.00;;;;;;6271767;28;20398;-69
2022/12/08 08:56:18;;;;;;;1.10;0.60;;;19.20;55.00;;;;;;6271197;28;20049;-68
2022/12/08 08:59:19;;;;;;;0.40;0.38;;;19.20;54.90;;;;;;6272862;28;20033;-69
2022/12/08 09:02:20;;;;;;;1.17;0.47;;;19.20;54.90;;;;;;6271127;28;20102;-69
2022/12/08 09:05:21;;;;;;;1.45;0.50;;;19.20;54.90;;;;;;6272445;28;20032;-68
2022/12/08 09:08:22;;;;;;;0.73;0.40;;;19.20;54.90;;;;;;6272572;28;20025;-69
2022/12/08 09:11:23;;;;;;;1.05;0.50;;;19.20;54.90;;;;;;6272518;28;20108;-68
2022/12/08 09:14:24;;;;;;;1.25;0.50;;;19.20;54.90;;;;;;6270996;28;20029;-68
2022/12/08 09:17:24;;;;;;;1.30;0.50;;;19.20;54.90;;;;;;6272272;28;20025;-68
2022/12/08 09:20:25;;;;;;;1.00;0.40;;;19.20;54.90;;;;;;6270694;28;20025;-68
2022/12/08 09:23:26;;;;;;;1.63;0.60;;;19.20;54.80;;;;;;6270896;28;20021;-68
2022/12/08 09:26:27;;;;;;;1.17;0.50;;;19.20;54.90;;;;;;6272190;28;20100;-68
2022/12/08 09:29:28;;;;;;;1.10;0.68;;;19.20;54.90;;;;;;6272021;28;20025;-68
2022/12/08 09:32:29;;;;;;;1.23;0.60;;;19.20;54.80;;;;;;6272039;28;20032;-68
2022/12/08 09:35:29;;;;;;;1.10;0.52;;;19.20;54.80;;;;;;6271971;28;20025;-68
2022/12/08 09:38:30;;;;;;;0.95;0.55;;;19.20;54.80;;;;;;6271936;28;20044;-68
2022/12/08 09:41:35;;;;;;;0.82;0.47;;;19.20;54.80;;;;;;6271782;28;20024;-68
2022/12/08 09:45:04;;;;;;;1.75;0.70;;;19.20;54.80;;;;;;6272068;28;20091;-68
2022/12/08 09:48:30;;;;;;;2.05;0.40;;;19.20;54.80;;;;;;6271585;28;20056;-68
2022/12/08 09:51:38;;;;;;;1.10;0.50;;;19.20;54.80;;;;;;6271536;28;20070;-68
2022/12/08 09:54:38;;;;;;;1.52;0.57;;;19.20;54.80;;;;;;6270981;28;20132;-68
2022/12/08 09:57:39;;;;;;;1.60;0.40;;;19.20;54.80;;;;;;6271534;28;20126;-68
2022/12/08 10:00:40;;;;;;;1.55;0.60;;;19.20;54.80;;;;;;6271441;28;20031;-68
2022/12/08 10:03:41;;;;;;;1.65;0.70;;;19.20;54.80;;;;;;6270086;28;20538;-68
2022/12/08 10:06:58;;;;;;;1.17;0.50;;;19.20;54.80;;;;;;6270928;28;20439;-68
2022/12/08 10:10:27;;;;;;;0.75;0.47;;;19.20;54.80;;;;;;6271285;28;20480;-69
2022/12/08 10:13:40;;;;;;;0.73;0.55;;;19.20;54.80;;;;;;6271641;28;20025;-68
2022/12/08 10:16:47;;;;;;;1.17;0.50;;;19.20;54.80;;;;;;6270088;28;20032;-68
2022/12/08 10:19:49;;;;;;;1.42;0.77;;;19.20;54.80;;;;;;6271354;28;20017;-69
2022/12/08 10:23:01;;;;;;;1.33;0.60;;;19.20;54.70;;;;;;6271198;28;20025;-69
2022/12/08 10:26:06;;;;;;;0.88;0.50;;;19.20;54.70;;;;;;6271219;28;20021;-69
2022/12/08 10:29:10;;;;;;;;;;;19.20;54.70;;;;;;6270707;28;20555;-69
2022/12/08 10:32:38;;;;;;;1.17;0.85;;;19.20;54.80;;;;;;6270068;28;19905;-69
2022/12/08 10:35:59;;;;;;;0.60;0.50;;;19.20;54.80;;;;;;6268704;28;20037;-69
2022/12/08 10:39:00;;;;;;;0.80;0.50;;;19.20;54.70;;;;;;6271255;28;20032;-68
2022/12/08 10:42:06;;;;;;;1.17;0.60;;;19.20;54.70;;;;;;6269834;28;20056;-68
2022/12/08 10:45:19;;;;;;;0.90;0.50;;;19.20;54.70;;;;;;6271165;28;20030;-68
2022/12/08 10:48:30;;;;;;;0.50;0.50;;;19.20;54.80;;;;;;6270091;28;20021;-68
2022/12/08 10:51:33;;;;;;;0.50;0.40;;;19.20;54.70;;;;;;6270708;28;20024;-69
2022/12/08 10:54:37;;;;;;;1.10;0.68;;;19.20;54.80;;;;;;6270797;28;20064;-69
2022/12/08 10:57:37;;;;;;;0.47;0.40;;;19.20;54.70;;;;;;6269827;28;20021;-68
2022/12/08 11:00:38;;;;;;;2.08;0.90;;;19.20;54.70;;;;;;6269357;28;20116;-69
2022/12/08 11:03:59;;;;;;;0.50;0.50;;;19.20;54.70;;;;;;6271025;28;20040;-67
2022/12/08 11:07:01;;;;;;;0.68;0.40;;;19.20;54.80;;;;;;6273096;28;20070;-67
2022/12/08 11:10:02;;;;;;;1.52;0.70;;;19.20;54.80;;;;;;6275074;28;20378;-66
2022/12/08 11:13:05;;;;;;;4.70;1.15;;;19.20;54.80;;;;;;6274892;28;20032;-67
2022/12/08 11:16:07;;;;;;;1.63;1.10;;;19.10;53.40;;;;;;6274749;28;20021;-68
2022/12/08 11:19:17;;;;;;;7.57;1.70;;;19.10;53.10;;;;;;6267751;28;20496;-69
2022/12/08 11:22:28;;;;;;;3.70;1.35;;;19.10;51.90;;;;;;6274331;28;20074;-69
2022/12/08 11:25:29;;;;;;;5.82;1.42;;;19.10;51.10;;;;;;6274461;28;20060;-69
2022/12/08 11:28:30;;;;;;;5.13;1.40;;;19.10;51.40;;;;;;6274349;28;20045;-69
2022/12/08 11:31:34;;;;;;;6.63;1.40;;;19.10;51.70;;;;;;6274272;28;20035;-69
2022/12/08 11:34:47;;;;;;;3.28;1.38;;;19.20;52.30;;;;;;6274205;28;20051;-69
2022/12/08 11:37:47;;;;;;;1.83;1.00;;;19.20;52.60;;;;;;6270821;28;20032;-69
2022/12/08 11:41:07;;;;;;;3.55;1.17;;;19.20;52.80;;;;;;6272639;28;20031;-69
2022/12/08 11:44:24;;;;;;;1.02;0.77;;;19.20;52.90;;;;;;6274059;28;20100;-69
2022/12/08 11:47:38;;;;;;;3.63;1.20;;;19.20;53.00;;;;;;6272896;28;20508;-69
2022/12/08 11:50:44;;;;;;;2.53;1.05;;;19.20;53.00;;;;;;6272529;28;20025;-69
2022/12/08 11:54:24;;;;;;;2.63;1.30;;;19.20;53.10;;;;;;6273883;28;20116;-69
2022/12/08 11:57:27;;;;;;;2.92;1.08;;;19.20;53.10;;;;;;6270889;28;20561;-69
2022/12/08 12:00:28;;;;;;;1.88;0.82;;;19.20;53.10;;;;;;6273488;28;20032;-68
2022/12/08 12:03:32;;;;;;;2.72;0.93;;;19.20;53.20;;;;;;6272338;28;20021;-69
2022/12/08 12:06:55;;;;;;;1.50;0.83;;;19.20;53.20;;;;;;6273890;28;20420;-69
2022/12/08 12:10:30;;;;;;;4.75;0.93;;;19.20;53.20;;;;;;6273532;28;20256;-70
2022/12/08 12:13:58;;;;;;;1.13;0.77;;;19.20;53.30;;;;;;6271155;28;20017;-71
2022/12/08 12:17:38;;;;;;;2.42;0.70;;;19.20;53.50;;;;;;6272317;28;20033;-71
2022/12/08 12:21:06;;;;;;;3.92;1.45;;;19.10;53.50;;;;;;6271144;28;20029;-73
2022/12/08 12:24:17;;;;;;;3.00;1.60;;;19.10;52.50;;;;;;6270888;28;20021;-74
2022/12/08 12:27:27;;;;;;;6.40;1.95;;;19.10;51.20;;;;;;6271898;28;20017;-73
2022/12/08 12:30:50;;;;;;;2.75;1.67;;;19.10;50.80;;;;;;6275781;28;20029;-73
2022/12/08 12:33:56;;;;;;;2.90;1.70;;;19.10;50.70;;;;;;6267191;28;20409;-73
2022/12/08 12:37:02;;;;;;;;;;;19.10;50.90;;;;;;6293605;28;20024;-73
2022/12/08 12:40:15;;;;;;;2.42;1.20;;;19.10;51.50;;;;;;6296006;28;20333;-73
2022/12/08 12:43:28;;;;;;;2.75;1.10;;;19.10;51.80;;;;;;6295875;28;20063;-73
2022/12/08 12:46:39;;;;;;;3.63;1.42;;;19.10;52.10;;;;;;6275083;28;20390;-73
2022/12/08 12:49:44;;;;;;;7.00;1.23;;;19.20;52.30;;;;;;6270085;28;20596;-73
2022/12/08 12:52:45;;;;;;;6.53;1.30;;;19.10;52.30;;;;;;6269215;28;20017;-73
2022/12/08 12:55:59;;;;;;;1.30;1.00;;;19.20;52.50;;;;;;6269365;28;20477;-73
2022/12/08 12:59:38;;;;;;;1.70;1.13;;;19.20;52.60;;;;;;6269875;28;20115;-73
2022/12/08 13:02:47;;;;;;;1.65;0.95;;;19.20;52.60;;;;;;6247002;28;20034;-69
2022/12/08 13:05:51;;;;;;;2.50;0.95;;;19.20;52.60;;;;;;6245697;28;20021;-67
2022/12/08 13:08:55;;;;;;;2.72;1.55;;;19.20;52.70;;;;;;6246688;28;20513;-67
2022/12/08 13:11:59;;;;;;;2.58;1.23;;;19.20;52.90;;;;;;6265045;28;20021;-67
2022/12/08 13:15:05;;;;;;;2.00;1.30;;;19.20;53.00;;;;;;6270658;28;20017;-68
2022/12/08 13:18:20;;;;;;;3.58;2.20;;;19.20;53.10;;;;;;6269502;28;20025;-68
2022/12/08 13:21:23;;;;;;;4.13;2.67;;;19.20;54.10;;;;;;6270269;28;20371;-68
2022/12/08 13:24:24;;;;;;;4.20;2.20;;;19.20;53.90;;;;;;6269769;28;20033;-67
2022/12/08 13:27:32;;;;;;;4.47;2.40;;;19.20;53.80;;;;;;6270080;28;20022;-67
2022/12/08 13:30:50;;;;;;;4.70;1.92;;;19.20;53.80;;;;;;6270611;28;20025;-67
2022/12/08 13:33:51;;;;;;;4.22;2.13;;;19.20;53.80;;;;;;6270632;28;20028;-68
2022/12/08 13:37:10;;;;;;;3.15;2.10;;;19.20;53.90;;;;;;6270395;28;20021;-67
2022/12/08 13:40:33;;;;;;;2.25;1.60;;;19.20;54.00;;;;;;6270693;28;20482;-67
2022/12/08 13:43:39;;;;;;;2.53;1.80;;;19.20;54.00;;;;;;6270831;28;20021;-68
2022/12/08 13:46:43;;;;;;;2.10;1.40;;;19.20;54.00;;;;;;6269956;28;20048;-68
2022/12/08 13:50:10;;;;;;;2.13;1.45;;;19.20;54.00;;;;;;6269306;28;20024;-68
2022/12/08 13:53:24;;;;;;;3.10;1.58;;;19.20;54.00;;;;;;6270135;28;20029;-68
2022/12/08 13:56:27;;;;;;;2.75;1.73;;;19.20;54.00;;;;;;6268598;28;20057;-68
2022/12/08 13:59:32;;;;;;;3.08;1.65;;;19.20;54.00;;;;;;6270150;28;20474;-68
2022/12/08 14:02:36;;;;;;;3.03;1.40;;;19.20;54.00;;;;;;6268970;28;20029;-68
2022/12/08 14:05:40;;;;;;;1.98;1.30;;;19.20;54.00;;;;;;6269778;28;20478;-68
2022/12/08 14:08:44;;;;;;;3.25;1.27;;;19.20;54.00;;;;;;6270382;28;20482;-68
2022/12/08 14:12:13;;;;;;;1.97;1.30;;;19.20;54.00;;;;;;6270093;28;20025;-67
2022/12/08 14:15:14;;;;;;;2.38;1.38;;;19.20;54.00;;;;;;6269330;28;20367;-67
2022/12/08 14:18:30;;;;;;;1.85;1.20;;;19.20;54.00;;;;;;6269953;28;20486;-67
2022/12/08 14:21:30;;;;;;;2.17;1.08;;;19.20;54.00;;;;;;6269854;28;20053;-68
2022/12/08 14:24:31;;;;;;;1.60;1.10;;;19.20;54.10;;;;;;6269821;28;20029;-67
2022/12/08 14:27:34;;;;;;;2.45;1.20;;;19.20;54.10;;;;;;6268228;28;20028;-67
2022/12/08 14:30:38;;;;;;;1.40;0.68;;;19.20;54.10;;;;;;6270047;28;20021;-67
2022/12/08 14:33:40;;;;;;;1.27;1.08;;;19.20;54.10;;;;;;6269458;28;20501;-68
2022/12/08 14:36:40;;;;;;;1.35;1.05;;;19.20;54.10;;;;;;6269560;28;20391;-68
2022/12/08 14:39:41;;;;;;;1.65;1.00;;;19.20;54.80;;;;;;6271104;28;20033;-67
2022/12/08 14:42:50;;;;;;;1.70;0.95;;;19.20;54.10;;;;;;6273180;28;20029;-67
2022/12/08 14:45:53;;;;;;;2.17;1.20;;;19.20;54.10;;;;;;6274429;28;20017;-67
2022/12/08 14:48:55;;;;;;;1.10;0.88;;;19.20;54.10;;;;;;6273015;28;20066;-73
2022/12/08 14:51:56;;;;;;;1.38;0.98;;;19.20;54.10;;;;;;6274450;28;20108;-66
2022/12/08 14:54:57;;;;;;;1.23;0.90;;;19.20;54.10;;;;;;6273842;28;20051;-68
2022/12/08 14:57:58;;;;;;;2.58;1.00;;;19.20;54.20;;;;;;6274284;28;20438;-72
2022/12/08 15:00:59;;;;;;;1.13;1.02;;;19.20;54.10;;;;;;6272942;28;20037;-75
2022/12/08 15:04:24;;;;;;;1.00;0.90;;;19.20;54.10;;;;;;6290251;28;20120;-67
2022/12/08 15:07:33;;;;;;;1.45;1.00;;;19.20;54.10;;;;;;6292178;28;20024;-67
2022/12/08 15:10:37;;;;;;;3.03;0.80;;;19.20;54.00;;;;;;6298508;28;20605;-67
2022/12/08 15:13:44;;;;;;;1.60;0.82;;;19.20;54.10;;;;;;6297744;28;20028;-67
2022/12/08 15:16:45;;;;;;;3.30;1.05;;;19.20;54.10;;;;;;6298123;28;20445;-66
2022/12/08 15:19:58;;;;;;;6.10;1.13;;;19.20;54.10;;;;;;6277075;28;20028;-66
2022/12/08 15:22:58;;;;;;;1.88;0.93;;;19.20;54.10;;;;;;6279960;28;20079;-67
2022/12/08 15:26:03;;;;;;;1.48;1.05;;;19.20;54.10;;;;;;6271906;28;20056;-67
2022/12/08 15:29:30;;;;;;;0.73;0.50;;;19.20;54.10;;;;;;6272475;28;20102;-68
2022/12/08 15:32:30;;;;;;;1.67;0.77;;;19.20;54.10;;;;;;6272401;28;20052;-67
2022/12/08 15:35:31;;;;;;;2.13;0.90;;;19.20;54.10;;;;;;6273063;28;20049;-67
2022/12/08 15:38:32;;;;;;;1.90;0.90;;;19.20;54.10;;;;;;6273805;28;20098;-67
2022/12/08 15:41:33;;;;;;;2.30;1.00;;;19.20;54.10;;;;;;6273306;28;20387;-67
2022/12/08 15:44:34;;;;;;;2.78;1.00;;;19.20;54.10;;;;;;6273360;28;20047;-66
2022/12/08 15:47:34;;;;;;;3.00;1.00;;;19.20;54.20;;;;;;6273208;28;20074;-66
2022/12/08 15:50:35;;;;;;;1.33;0.85;;;19.20;54.10;;;;;;6273023;28;20028;-66
2022/12/08 15:53:36;;;;;;;1.45;0.80;;;19.20;54.20;;;;;;6272768;28;20029;-67
2022/12/08 15:56:45;;;;;;;2.75;1.33;;;19.20;54.10;;;;;;6272530;28;20049;-66
2022/12/08 15:59:45;;;;;;;1.73;0.70;;;19.20;54.10;;;;;;6273051;28;20029;-67
2022/12/08 16:02:47;;;;;;;2.30;1.05;;;19.20;54.10;;;;;;6272945;28;20036;-69
2022/12/08 16:05:48;;;;;;;2.65;0.80;;;19.20;54.20;;;;;;6271022;28;20091;-67
2022/12/08 16:08:49;;;;;;;3.88;1.02;;;19.20;54.30;;;;;;6272981;28;20068;-68
2022/12/08 16:15:11;;;;;;;4.55;1.33;;;19.20;52.80;;;;;;6270792;28;20045;-68